MADIS QC Values

Here are the MADIS QC values for some of the networks in the IEM. Red numbers indicate that the observed value is too high. Blue numbers indicate that the observed value is too low. The 'QC' value is an average of all of the QC routines MADIS runs. The 'Spatial' column is a result of the Spatial Consistency Check.

Site ID: Station Name: Ob Valid: (UTC) Air Temperature [F] Dewpoint [F] Altimeter [inch]
OB: QC: Spatial: OB: QC: Spatial: OB: QC: Spatial:
ADUAUDUBON 29 22:35Z 55MMMMM30MM
AIOATLANTIC 29 22:35Z 57MM5MM30MM
ALOWaterloo 29 21:54Z 56MM12MM30.09MM
AMWAmes 29 21:53Z 57MM12MM30.04MM
AWGWASHINGTON 29 22:35Z 52MM10MM30.17MM
AXAALGONA 29 22:35Z 57MM5MM29.92MM
BNWBOONE MUNI 29 22:35Z 55MM9MM30MM
BRLBURLINGTON 29 21:53Z 50MM14MM30.25MM
CAVCLARION 29 22:35Z 57MM7MM29.98MM
CBFCOUNCIL BLUFFS 29 22:35Z 59MM9MM29.96MM
CCYCHARLES CITY 29 22:35Z 54MM10MM30.02MM
CIDCEDAR RAPIDS 29 21:52Z 52MM14MM30.16MM
CINCARROLL 29 22:35Z 57MM5MM29.96MM
CKPCherokee 29 22:35Z 59MM10MM29.91MM
CNCCHARITON 29 22:35Z 54MM14MM30.1MM
CSQCRESTON 29 22:35Z 54MM5MM30.05MM
CWICLINTON 29 21:56Z 49MM16MM30.25MM
DBQDUBUQUE 29 21:53Z 48MM15MM30.19MM
DEHDECORAH 29 22:35Z 50MM12MM30.06MM
DNSDENISON 29 22:35Z 57MM7MM29.96MM
DSMDes Moines 29 21:54Z 57MM12MM30.07MM
DVNQUAD CITIES 29 21:52Z 49MM14MM30.25MM
EBSWebster City 29 22:35Z 55MM5MM29.97MM
EOKKEOKUK MUNI 29 22:35Z 52MM10MM30.24MM
ESTESTHERVILLE 29 21:52Z 59MM10MM29.91MM
FFLFAIRFIELD 29 22:35Z 52MM5MM30.17MM
FODFORT DODGE 29 21:56Z 57MM4MM29.97MM
FSWFORT MADISON 29 22:35Z 50MM16MM30.23MM
FXYForest City 29 22:35Z 55MM9MM29.97MM
GGIGrinnell 29 22:35Z 55MM16MM30.12MM
HNRHARLAN 29 22:35Z 57MM3MM29.98MM
I75Osceola 29 22:35Z 55MM11MM30.09MM
ICLCLARINDA 29 22:35Z 55MM-0MM30.07MM
IFAIowa Falls 29 22:35Z 55MM-1MM30.03MM
IIBINDEPENDENCE 29 22:35Z 52MM13MM30.13MM
IKVANKENY 29 22:35Z 55MM10MM30.05MM
IOWIOWA CITY 29 21:52Z 53MM16MM30.21MM
LRJLE MARS 29 22:35Z 59MM28MM29.85MM
LWDLAMONI 29 21:53Z 54MM7MM30.11MM
MCWMASON CITY 29 21:53Z 56MM11MM29.99MM
MIWMARSHALLTOWN 29 21:53Z 55MM14MM30.07MM
MPZMOUNT PLEASANT 29 22:35Z 52MM14MM30.22MM
MUTMUSCATINE 29 22:35Z 52MM14MM30.22MM
MXOMONTICELLO MUNI 29 22:35Z 50MM14MM30.16MM
OLZOELWEIN 29 22:35Z 52MM12MM30.09MM
OOAOskaloosa 29 22:35Z 56MM13MM30.14MM
ORCOrange City 2019 Feb 28 22:15Z 12-0.31.110-2.1-2.330.210.010.01
OTMOTTUMWA 29 21:53Z 54MM14MM30.17MM
OXVKnoxville 29 22:35Z 54MM12MM30.1MM
PEAPELLA 29 22:35Z 53MM14MM30.11MM
PROPerry 29 22:35Z 57MM-0MM30.02MM
RDKRED OAK 29 22:35Z 57MM7MM30.02MM
SDASHENANDOAH MUNI 29 22:35Z 57MM7MM30.03MM
SHLSHELDON 29 22:35Z 57MM12MM29.84MM
SLBStorm Lake 29 22:35Z 55MM7MM29.92MM
SPWSPENCER 29 21:53Z 60MM11MM29.9MM
SUXSIOUX CITY 29 21:52Z 62MM16MM29.91MM
TNUNEWTON MUNI 29 22:35Z 54MM12MM30.08MM
TVKCenterville 29 22:35Z 52MM7MM30.16MM
VTIVINTON 29 22:35Z 53MM15MM30.12MM